Pagrindinis puslapis
METAR-TAF:

METAR-TAF

Oro uostai :

Ankara-Güvercinlik, Turkija

platuma: 39-56N, ilguma: 032-45E, Aukštis: 819 m

Dabartinis oras

Ataskaita buvo paskelbta 1 valandą ir 10 minutes, ne 21:38 UTC
Vėjas 8 kt iš Rytų/Šiaurės Rytų
Temperatūra 12°C
Drėgmė 67%
Slėgis 1013 hPa
Matomumas 10 km arba daugiau
Su prošvaistėmis ne aukštis 3500 ft
Su prošvaistėmis ne aukštis 9000 ft
lietus

METAR: LTAB 052138Z 07008KT 9999 -SHRA BKN035 BKN090 12/06 Q1013 NOSIG RMK RWY06 VRB02KT

Laikas: 01:48 (22:48 UTC)

Prognozė

Ataskaita buvo paskelbta 3 valandos ir 8 minutes, ne 19:40 UTC
Prognozė galioja nuo 05 metu 21 UTC su 06 metu 06 UTC
Vėjas 12 kt iš Rytų/Šiaurės Rytų
Matomumas 10 km arba daugiau
Išsisklaidę debesys ne aukštis 4000 ft
Išsisklaidę debesys ne aukštis 10000 ft
Laikinai
nuo 05 metu 21 UTC su 05 metu 24 UTC
Su prošvaistėmis ne aukštis 3500 ft
Su prošvaistėmis ne aukštis 9000 ft
lietus

TAF: LTAB 051940Z 0521/0606 06012KT 9999 SCT040 SCT100 TEMPO 0521/0524 -SHRA BKN035 BKN090

Orai ataskaitas ir orų prognozės (METAR, TAF).

turimą stotys yra geltonos ir raudonos taškus žemėlapyje.

Perkelti pele per norėdami pamatyti stoties vardą.

Tada spustelėkite, norėdami matyti oro stebėjimo ir prognozės.

Norėdami pakeisti žemėlapį: spustelėkite ant žalios mygtukų su juodo kryžiaus žemyn,; žalią mygtuką su brūkšneliu, jei norite nutolinti; arba žalių rodyklių gretimoms žemėlapius.


METAR-TAF: